Terminal Aerodrome Forecast
Issued by NWS Sterling, VA

Home | Current Version | Previous Version | Text Only | Print | Product List | Glossary On
Versions: 1 2 3 4 5 6 7 8 9 10 11 12 13 14 15 16 17 18 19 20 21 22 23 24
000
FTUS41 KLWX 271400 AAB
TAFMRB
TAF AMD
KMRB 271405Z 2714/2812 30011G16KT 3SM -SN SCT020 BKN035 OVC050
     FM271500 32012G22KT 6SM -SN OVC035
     FM271700 31013G25KT P6SM SCT030 BKN050
     FM280300 32011KT P6SM FEW250=

USA.gov is the U.S. government's official web portal to all federal, state and local government web resources and services.